Time;durP1;ratioP1;P1;durP2;ratioP2;P2;SDS_P1;SDS_P2;PMS_P1;PMS_P2;Temp;Humidity;BMP_temperature;BMP_pressure;BME280_temperature;BME280_humidity;BME280_pressure;Samples;Min_cycle;Max_cycle;Signal;HPM_P1;HPM_P2
2021/05/29 00:00:56;;;;;;;6.15;3.22;;;18.00;99.90;;;;;;5072384;28;20067;-87
2021/05/29 00:03:24;;;;;;;8.50;3.55;;;18.00;99.90;;;;;;5090306;28;20447;-87
2021/05/29 00:05:51;;;;;;;4.65;3.20;;;18.10;99.90;;;;;;5084161;28;20028;-88
2021/05/29 00:08:17;;;;;;;5.43;3.50;;;18.00;99.90;;;;;;5072489;28;20020;-87
2021/05/29 00:10:46;;;;;;;5.55;3.20;;;18.00;99.90;;;;;;5083326;28;20106;-87
2021/05/29 00:13:12;;;;;;;4.82;3.10;;;18.20;99.90;;;;;;5062735;28;20481;-88
2021/05/29 00:15:39;;;;;;;5.35;3.03;;;18.00;99.90;;;;;;5087086;28;20028;-88
2021/05/29 00:18:07;;;;;;;5.93;3.60;;;17.50;99.90;;;;;;5087072;28;20024;-88
2021/05/29 00:20:34;;;;;;;4.88;3.28;;;17.60;99.90;;;;;;5079026;28;20066;-88
2021/05/29 00:23:00;;;;;;;4.93;3.25;;;17.50;99.90;;;;;;5080303;28;20039;-87
2021/05/29 00:25:26;;;;;;;5.38;3.08;;;17.50;99.90;;;;;;5068355;28;20074;-87
2021/05/29 00:27:52;;;;;;;4.00;3.20;;;17.60;99.90;;;;;;5071077;28;20020;-87
2021/05/29 00:30:18;;;;;;;4.18;3.03;;;17.40;99.90;;;;;;5073321;28;20031;-88
2021/05/29 00:32:44;;;;;;;6.30;3.15;;;17.40;99.90;;;;;;5083774;28;20040;-88
2021/05/29 00:35:10;;;;;;;4.65;2.95;;;17.40;99.90;;;;;;5091192;28;20024;-87
2021/05/29 00:37:52;;;;;;;3.95;2.83;;;17.40;99.90;;;;;;5063891;28;20039;-87
2021/05/29 00:40:18;;;;;;;4.53;2.80;;;17.40;99.90;;;;;;5076507;28;20038;-88
2021/05/29 00:42:44;;;;;;;3.63;2.90;;;17.50;99.90;;;;;;5095067;28;20016;-87
2021/05/29 00:45:10;;;;;;;4.38;2.38;;;17.40;99.90;;;;;;5093825;28;20163;-88
2021/05/29 00:47:35;;;;;;;3.75;2.53;;;17.40;99.90;;;;;;5073130;28;20025;-87
2021/05/29 00:50:06;;;;;;;5.35;2.75;;;17.50;99.90;;;;;;5084687;28;20047;-87
2021/05/29 00:52:34;;;;;;;3.97;3.00;;;17.30;99.90;;;;;;5089298;28;20058;-88
2021/05/29 00:55:06;;;;;;;4.47;2.60;;;17.30;99.90;;;;;;5076801;28;20032;-87
2021/05/29 00:57:31;;;;;;;3.30;2.63;;;17.20;99.90;;;;;;5094802;28;20177;-87
2021/05/29 00:59:57;;;;;;;2.97;2.50;;;17.10;99.90;;;;;;5085523;28;20551;-87
2021/05/29 01:02:23;;;;;;;3.08;2.47;;;17.00;99.90;;;;;;5084862;28;20044;-88
2021/05/29 01:04:49;;;;;;;4.68;2.70;;;17.10;99.90;;;;;;5091355;28;20028;-87
2021/05/29 01:07:16;;;;;;;4.28;2.60;;;17.00;99.90;;;;;;5087426;28;20021;-86
2021/05/29 01:09:44;;;;;;;5.80;2.58;;;16.90;99.90;;;;;;5091974;28;20103;-87
2021/05/29 01:12:12;;;;;;;3.65;2.33;;;16.90;99.90;;;;;;5062005;28;20031;-87
2021/05/29 01:14:46;;;;;;;4.15;2.30;;;17.00;99.90;;;;;;5094108;28;20031;-87
2021/05/29 01:17:11;;;;;;;3.28;2.45;;;17.00;99.90;;;;;;5090564;28;20100;-87
2021/05/29 01:19:37;;;;;;;3.97;2.42;;;17.00;99.90;;;;;;5087076;28;20697;-87
2021/05/29 01:22:06;;;;;;;4.40;2.60;;;16.90;99.90;;;;;;5092118;28;20035;-87
2021/05/29 01:24:32;;;;;;;4.00;2.85;;;17.00;99.90;;;;;;5076378;28;20111;-88
2021/05/29 01:26:57;;;;;;;2.90;2.38;;;16.90;99.90;;;;;;5091422;28;20115;-87
2021/05/29 01:29:23;;;;;;;4.38;2.38;;;17.00;99.90;;;;;;5085531;28;20086;-87
2021/05/29 01:31:59;;;;;;;2.88;2.60;;;16.80;99.90;;;;;;5092019;28;20035;-88
2021/05/29 01:34:27;;;;;;;3.17;2.60;;;16.90;99.90;;;;;;5089395;28;20116;-87
2021/05/29 01:36:53;;;;;;;3.67;2.40;;;16.80;99.90;;;;;;5091422;28;20101;-87
2021/05/29 01:39:19;;;;;;;5.78;2.63;;;16.70;99.90;;;;;;5081587;28;20487;-88
2021/05/29 01:41:45;;;;;;;3.38;2.50;;;16.70;99.90;;;;;;5075491;28;20052;-88
2021/05/29 01:44:12;;;;;;;3.53;2.63;;;16.70;99.90;;;;;;5074141;28;20082;-87
2021/05/29 01:46:38;;;;;;;2.90;2.60;;;16.70;99.90;;;;;;5075623;28;20447;-88
2021/05/29 01:49:03;;;;;;;3.28;2.90;;;16.70;99.90;;;;;;5093862;28;20029;-87
2021/05/29 01:51:29;;;;;;;3.55;2.58;;;16.60;99.90;;;;;;5075106;28;20088;-87
2021/05/29 01:53:54;;;;;;;3.47;2.40;;;16.50;99.90;;;;;;5091046;28;20028;-87
2021/05/29 01:56:20;;;;;;;3.53;2.40;;;16.50;99.90;;;;;;5090693;28;20028;-88
2021/05/29 01:58:47;;;;;;;5.18;2.90;;;16.50;99.90;;;;;;5090956;28;20036;-87
2021/05/29 02:01:14;;;;;;;3.03;2.63;;;16.50;99.90;;;;;;5092074;28;20025;-87
2021/05/29 02:03:44;;;;;;;3.03;2.72;;;16.60;99.90;;;;;;5089674;28;20500;-87
2021/05/29 02:06:10;;;;;;;3.03;2.65;;;16.50;99.90;;;;;;5090208;28;20099;-88
2021/05/29 02:08:36;;;;;;;3.70;2.75;;;16.40;99.90;;;;;;5091574;28;20036;-87
2021/05/29 02:11:02;;;;;;;4.32;2.50;;;16.40;99.90;;;;;;5090135;28;20125;-88
2021/05/29 02:13:37;;;;;;;3.45;2.97;;;16.40;99.90;;;;;;5090844;28;20021;-87
2021/05/29 02:16:05;;;;;;;4.03;2.58;;;16.40;99.90;;;;;;5074900;28;20039;-87
2021/05/29 02:18:31;;;;;;;3.45;3.15;;;16.30;99.90;;;;;;5093411;28;20055;-87
2021/05/29 02:21:03;;;;;;;5.13;2.80;;;16.20;99.90;;;;;;5090440;28;20032;-87
2021/05/29 02:23:35;;;;;;;3.35;3.05;;;16.40;99.90;;;;;;5092051;28;20482;-87
2021/05/29 02:26:06;;;;;;;3.33;2.40;;;16.30;99.90;;;;;;5073256;28;20032;-87
2021/05/29 02:28:36;;;;;;;4.05;2.70;;;16.20;1.00;;;;;;5074668;28;20081;-87
2021/05/29 02:31:04;;;;;;;4.40;2.70;;;16.30;99.90;;;;;;5092507;28;20033;-87
2021/05/29 02:33:29;;;;;;;3.15;2.63;;;16.30;99.90;;;;;;5073422;28;20093;-87
2021/05/29 02:35:57;;;;;;;3.72;2.50;;;16.20;99.90;;;;;;5092864;28;20036;-87
2021/05/29 02:38:26;;;;;;;4.45;2.80;;;16.20;99.90;;;;;;5089950;28;20443;-87
2021/05/29 02:40:51;;;;;;;3.78;2.72;;;16.30;99.90;;;;;;5091725;28;20028;-87
2021/05/29 02:43:18;;;;;;;3.10;2.80;;;16.20;99.90;;;;;;5091298;28;20115;-87
2021/05/29 02:45:43;;;;;;;3.55;2.80;;;16.10;99.90;;;;;;5074498;28;20035;-86
2021/05/29 02:48:11;;;;;;;6.45;2.67;;;16.20;99.90;;;;;;5088571;28;20024;-87
2021/05/29 02:50:39;;;;;;;3.83;2.70;;;16.30;99.90;;;;;;5092411;28;20020;-87
2021/05/29 02:53:05;;;;;;;3.88;2.30;;;16.90;99.90;;;;;;5091108;28;20023;-87
2021/05/29 02:55:31;;;;;;;3.13;2.50;;;16.40;99.90;;;;;;5086794;28;20020;-88
2021/05/29 02:57:59;;;;;;;5.88;2.85;;;16.40;99.90;;;;;;5073657;28;20030;-87
2021/05/29 03:00:30;;;;;;;4.22;2.58;;;16.40;99.90;;;;;;5091071;28;20038;-87
2021/05/29 03:02:57;;;;;;;3.63;2.78;;;16.40;99.90;;;;;;5077559;28;20176;-87
2021/05/29 03:05:23;;;;;;;3.92;2.42;;;16.60;99.90;;;;;;5091031;28;20459;-87
2021/05/29 03:07:51;;;;;;;3.53;3.20;;;16.50;99.90;;;;;;5073901;28;20450;-87
2021/05/29 03:10:21;;;;;;;5.20;3.05;;;16.30;99.90;;;;;;5084851;28;22982;-89
2021/05/29 03:12:47;;;;;;;3.03;2.55;;;16.40;99.90;;;;;;5090558;28;20107;-88
2021/05/29 03:15:24;;;;;;;7.82;2.97;;;16.20;99.90;;;;;;5073998;28;20040;-87
2021/05/29 03:17:51;;;;;;;2.80;2.35;;;16.20;99.90;;;;;;5072132;28;20024;-88
2021/05/29 03:20:20;;;;;;;2.90;2.45;;;16.30;99.90;;;;;;5090549;28;20530;-87
2021/05/29 03:22:46;;;;;;;5.45;2.55;;;16.30;99.90;;;;;;5091376;28;20047;-87
2021/05/29 03:25:13;;;;;;;2.60;2.38;;;16.20;99.90;;;;;;5072314;28;20508;-87
2021/05/29 03:27:39;;;;;;;3.20;2.60;;;16.10;99.90;;;;;;5085445;28;20020;-87
2021/05/29 03:30:10;;;;;;;2.65;2.45;;;16.10;99.90;;;;;;5073517;28;20031;-88
2021/05/29 03:32:37;;;;;;;6.88;2.58;;;16.00;99.90;;;;;;5091334;28;20039;-88
2021/05/29 03:35:05;;;;;;;2.67;2.47;;;16.10;99.90;;;;;;5084572;28;20024;-87
2021/05/29 03:37:30;;;;;;;3.03;2.10;;;16.20;99.90;;;;;;5085825;28;20017;-87
2021/05/29 03:39:56;;;;;;;4.60;2.47;;;16.10;1.00;;;;;;5085109;28;20457;-88
2021/05/29 03:42:23;;;;;;;3.17;2.53;;;16.00;99.90;;;;;;5092345;28;20035;-87
2021/05/29 03:44:48;;;;;;;3.03;2.47;;;16.00;99.90;;;;;;5091947;28;20032;-87
2021/05/29 03:47:15;;;;;;;4.10;2.45;;;16.00;99.90;;;;;;5088815;28;20479;-89
2021/05/29 03:49:43;;;;;;;3.40;2.50;;;15.90;99.90;;;;;;5082590;28;20051;-88
2021/05/29 03:52:10;;;;;;;6.13;2.90;;;15.90;99.90;;;;;;5088500;28;20025;-87
2021/05/29 03:54:37;;;;;;;4.05;2.53;;;16.00;99.90;;;;;;5084899;28;20036;-88
2021/05/29 03:57:03;;;;;;;5.85;2.97;;;15.80;99.90;;;;;;5091887;28;20038;-87
2021/05/29 03:59:28;;;;;;;4.68;3.00;;;15.90;99.90;;;;;;5083001;28;20040;-88
2021/05/29 04:01:54;;;;;;;4.00;2.75;;;15.90;99.90;;;;;;5088756;28;20028;-88
2021/05/29 04:04:20;;;;;;;3.97;3.20;;;15.80;99.90;;;;;;5066809;28;20139;-87
2021/05/29 04:06:46;;;;;;;4.45;2.60;;;15.90;99.90;;;;;;5070156;28;20032;-87
2021/05/29 04:09:12;;;;;;;3.78;2.85;;;15.80;99.90;;;;;;5072533;28;20024;-88
2021/05/29 04:11:41;;;;;;;4.18;2.72;;;15.90;99.90;;;;;;5091517;28;20624;-87
2021/05/29 04:14:09;;;;;;;4.60;2.92;;;15.80;1.00;;;;;;5090346;28;20492;-88
2021/05/29 04:16:38;;;;;;;3.20;2.80;;;16.00;1.00;;;;;;5070829;28;20393;-87
2021/05/29 04:19:04;;;;;;;3.47;2.95;;;16.00;1.00;;;;;;5087826;28;20044;-88
2021/05/29 04:21:30;;;;;;;3.63;2.63;;;16.00;99.90;;;;;;5110208;28;20077;-87
2021/05/29 04:23:56;;;;;;;3.58;2.88;;;16.10;99.90;;;;;;5091347;28;20528;-88
2021/05/29 04:26:21;;;;;;;4.45;2.25;;;16.00;99.90;;;;;;5077871;28;20045;-87
2021/05/29 04:28:48;;;;;;;4.10;2.60;;;16.10;99.90;;;;;;5091900;28;20024;-88
2021/05/29 04:31:14;;;;;;;3.67;2.30;;;16.10;99.90;;;;;;5087109;28;20040;-88
2021/05/29 04:33:39;;;;;;;3.83;2.92;;;16.20;99.90;;;;;;5092501;28;20152;-87
2021/05/29 04:36:05;;;;;;;2.78;2.50;;;16.30;99.90;;;;;;5083588;28;20020;-88
2021/05/29 04:38:31;;;;;;;4.13;3.15;;;16.40;99.90;;;;;;5076865;28;20036;-87
2021/05/29 04:40:57;;;;;;;4.72;3.08;;;16.30;99.90;;;;;;5093674;28;20392;-87
2021/05/29 04:43:22;;;;;;;3.45;3.15;;;16.30;99.90;;;;;;5072256;28;20484;-87
2021/05/29 04:45:48;;;;;;;4.03;3.05;;;16.30;99.90;;;;;;5075573;28;20017;-87
2021/05/29 04:48:14;;;;;;;5.68;3.30;;;16.50;99.90;;;;;;5092858;28;20446;-87
2021/05/29 04:53:25;;;;;;;5.05;3.28;;;16.70;99.90;;;;;;5095013;28;20027;-87
2021/05/29 04:55:53;;;;;;;4.25;3.30;;;16.80;99.90;;;;;;5093371;28;20038;-87
2021/05/29 04:58:19;;;;;;;5.47;3.60;;;16.70;99.90;;;;;;5076422;28;20554;-88
2021/05/29 05:00:45;;;;;;;6.40;3.33;;;16.70;99.90;;;;;;5094819;28;20036;-87
2021/05/29 05:03:10;;;;;;;5.32;3.20;;;16.80;99.90;;;;;;5087477;28;20032;-87
2021/05/29 05:05:36;;;;;;;5.70;3.55;;;16.80;99.90;;;;;;5093327;28;20035;-88
2021/05/29 05:08:02;;;;;;;3.95;2.88;;;16.80;99.90;;;;;;5076612;28;20035;-87
2021/05/29 05:10:27;;;;;;;4.35;3.25;;;16.80;99.90;;;;;;5094665;28;20019;-87
2021/05/29 05:12:53;;;;;;;7.40;3.35;;;16.70;99.90;;;;;;5093278;28;20066;-87
2021/05/29 05:15:19;;;;;;;4.22;3.10;;;16.90;99.90;;;;;;5076624;28;20023;-87
2021/05/29 05:17:44;;;;;;;7.70;3.45;;;16.90;99.90;;;;;;5086868;28;20610;-87
2021/05/29 05:20:11;;;;;;;4.40;3.38;;;16.90;99.90;;;;;;5092991;28;20114;-87
2021/05/29 05:22:37;;;;;;;5.75;3.42;;;16.90;99.90;;;;;;5094272;28;20016;-87
2021/05/29 05:25:05;;;;;;;3.38;2.95;;;16.90;99.90;;;;;;5092313;28;20042;-86
2021/05/29 05:27:32;;;;;;;5.03;3.35;;;17.00;99.90;;;;;;5093099;28;20024;-87
2021/05/29 05:29:57;;;;;;;3.97;3.22;;;17.10;99.90;;;;;;5090919;28;20031;-87
2021/05/29 05:32:23;;;;;;;4.80;3.22;;;17.30;99.90;;;;;;5089072;28;20040;-87
2021/05/29 05:34:49;;;;;;;4.53;3.92;;;17.30;1.00;;;;;;5090751;28;20424;-87
2021/05/29 05:37:15;;;;;;;4.50;3.75;;;17.20;99.90;;;;;;5076537;28;20047;-88
2021/05/29 05:39:40;;;;;;;5.45;3.78;;;17.00;99.90;;;;;;5094226;28;20480;-88
2021/05/29 05:42:07;;;;;;;4.40;4.00;;;17.00;99.90;;;;;;5093464;28;20485;-86
2021/05/29 05:44:32;;;;;;;6.07;4.60;;;16.90;99.90;;;;;;5093585;28;20373;-86
2021/05/29 05:46:58;;;;;;;5.78;4.57;;;16.80;99.90;;;;;;5080313;28;20027;-86
2021/05/29 05:49:24;;;;;;;5.93;4.13;;;16.90;99.90;;;;;;5092590;28;20025;-86
2021/05/29 05:51:49;;;;;;;8.25;4.35;;;17.00;99.90;;;;;;5092597;28;20024;-87
2021/05/29 05:54:15;;;;;;;4.57;4.15;;;16.90;99.90;;;;;;5086222;28;20024;-86
2021/05/29 05:56:41;;;;;;;5.20;4.25;;;17.00;99.90;;;;;;5080117;28;20021;-85
2021/05/29 05:59:06;;;;;;;5.03;4.38;;;17.00;99.90;;;;;;5092081;28;20028;-86
2021/05/29 06:01:32;;;;;;;5.10;4.60;;;16.90;99.90;;;;;;5085947;28;20024;-86
2021/05/29 06:03:58;;;;;;;4.63;4.20;;;16.80;99.90;;;;;;5089833;28;20031;-89
2021/05/29 06:06:24;;;;;;;4.65;4.07;;;17.10;99.90;;;;;;5082881;28;20028;-91
2021/05/29 06:08:50;;;;;;;5.68;4.20;;;17.10;99.90;;;;;;5075306;28;20034;-88
2021/05/29 06:11:16;;;;;;;4.38;3.85;;;17.10;1.00;;;;;;5092499;28;20058;-89
2021/05/29 06:21:38;;;;;;;4.70;4.30;;;17.10;99.90;;;;;;5092745;28;20097;-88
2021/05/29 06:24:04;;;;;;;7.40;4.50;;;16.90;99.90;;;;;;5093172;28;20083;-89
2021/05/29 06:26:30;;;;;;;4.47;4.07;;;17.00;99.90;;;;;;5074289;28;20046;-90
2021/05/29 06:28:56;;;;;;;6.68;4.45;;;16.90;99.90;;;;;;5090523;28;20031;-89
2021/05/29 06:31:21;;;;;;;6.18;3.97;;;17.00;99.90;;;;;;5090145;28;20102;-86
2021/05/29 06:33:47;;;;;;;5.82;4.72;;;17.10;99.90;;;;;;5091962;28;20097;-89
2021/05/29 06:36:13;;;;;;;4.53;4.13;;;17.10;99.90;;;;;;5072632;28;20122;-88
2021/05/29 06:38:39;;;;;;;4.82;4.35;;;17.10;99.90;;;;;;5092854;28;20048;-89
2021/05/29 06:41:05;;;;;;;6.38;4.63;;;17.10;99.90;;;;;;5090740;28;20081;-89
2021/05/29 06:43:31;;;;;;;5.70;4.57;;;16.90;99.90;;;;;;5089467;28;20035;-89
2021/05/29 06:45:56;;;;;;;4.72;4.32;;;17.00;99.90;;;;;;5091536;28;20020;-90
2021/05/29 06:48:24;;;;;;;5.18;4.30;;;17.00;99.90;;;;;;5074805;28;20031;-89
2021/05/29 06:50:55;;;;;;;5.18;4.60;;;17.10;99.90;;;;;;5093540;28;20366;-89
2021/05/29 06:53:42;;;;;;;5.75;4.30;;;17.20;99.90;;;;;;5086336;28;20057;-89
2021/05/29 06:58:52;;;;;;;6.93;4.53;;;17.20;99.90;;;;;;5092237;28;20127;-89
2021/05/29 07:01:20;;;;;;;5.68;4.07;;;17.20;99.90;;;;;;5075629;28;20055;-89
2021/05/29 07:03:47;;;;;;;4.82;4.28;;;17.20;99.90;;;;;;5066776;28;20028;-89
2021/05/29 07:06:14;;;;;;;4.32;3.92;;;17.60;99.90;;;;;;5093021;28;20099;-89
2021/05/29 07:08:40;;;;;;;5.38;4.35;;;17.30;99.90;;;;;;5092377;28;20020;-89
2021/05/29 07:11:06;;;;;;;4.72;4.18;;;17.40;99.90;;;;;;5090201;28;20107;-89
2021/05/29 07:13:32;;;;;;;6.05;4.32;;;17.30;99.90;;;;;;5086206;28;20087;-89
2021/05/29 07:15:59;;;;;;;5.90;4.22;;;17.10;99.90;;;;;;5090037;28;20028;-89
2021/05/29 07:18:28;;;;;;;6.80;4.40;;;17.50;99.90;;;;;;5088337;28;20047;-89
2021/05/29 07:20:54;;;;;;;5.13;4.57;;;17.50;99.90;;;;;;5078050;28;20024;-89
2021/05/29 07:23:20;;;;;;;4.90;4.45;;;17.70;99.90;;;;;;5072868;28;20031;-89
2021/05/29 07:25:45;;;;;;;5.15;4.22;;;17.70;99.90;;;;;;5093518;28;20035;-91
2021/05/29 07:28:11;;;;;;;4.90;4.47;;;17.50;99.90;;;;;;5094390;28;20485;-95
2021/05/29 07:30:37;;;;;;;5.70;4.85;;;17.80;99.90;;;;;;5075908;28;20039;-95
2021/05/29 07:33:05;;;;;;;6.63;4.47;;;17.80;99.90;;;;;;5067698;28;20093;-94
2021/05/29 07:35:31;;;;;;;5.30;4.43;;;17.70;99.90;;;;;;5088704;28;20124;-94
2021/05/29 07:37:57;;;;;;;5.68;4.80;;;17.60;99.90;;;;;;5087907;28;20407;-91
2021/05/29 07:40:23;;;;;;;5.80;4.68;;;17.50;99.90;;;;;;5072366;28;20042;-92
2021/05/29 07:42:49;;;;;;;4.85;4.40;;;17.60;99.90;;;;;;5093750;28;20397;-93
2021/05/29 07:45:16;;;;;;;7.07;4.97;;;17.40;99.90;;;;;;5067438;28;20036;-91
2021/05/29 07:47:42;;;;;;;5.13;4.68;;;17.70;99.90;;;;;;5061071;28;20020;-90
2021/05/29 07:50:08;;;;;;;5.57;4.97;;;17.80;99.90;;;;;;5071971;28;20028;-90
2021/05/29 07:52:34;;;;;;;9.50;4.88;;;17.80;99.90;;;;;;5072323;28;20026;-89
2021/05/29 07:55:00;;;;;;;6.32;4.82;;;17.70;99.90;;;;;;5089121;28;20074;-89
2021/05/29 07:57:26;;;;;;;7.18;4.70;;;17.90;99.90;;;;;;5067564;28;20036;-90
2021/05/29 07:59:52;;;;;;;5.25;4.75;;;18.00;99.90;;;;;;5062914;28;20028;-90
2021/05/29 08:02:17;;;;;;;5.80;5.20;;;17.90;99.90;;;;;;5088203;28;20023;-90
2021/05/29 08:04:43;;;;;;;5.45;4.95;;;17.60;99.90;;;;;;5081000;28;20021;-90
2021/05/29 08:07:08;;;;;;;8.70;5.40;;;17.70;99.90;;;;;;5085108;28;20488;-89
2021/05/29 08:09:34;;;;;;;5.53;4.93;;;18.30;99.90;;;;;;5083813;28;20024;-89
2021/05/29 08:12:00;;;;;;;6.15;5.07;;;17.80;99.90;;;;;;5089944;28;20024;-90
2021/05/29 08:14:26;;;;;;;6.20;5.13;;;17.80;99.90;;;;;;5072564;28;20488;-90
2021/05/29 08:16:51;;;;;;;7.72;5.05;;;17.70;99.90;;;;;;5083380;28;20027;-90
2021/05/29 08:19:17;;;;;;;5.47;4.97;;;17.70;99.90;;;;;;5084153;28;20037;-89
2021/05/29 08:21:46;;;;;;;5.63;5.13;;;17.80;99.90;;;;;;5085278;28;20091;-90
2021/05/29 08:24:12;;;;;;;6.18;5.03;;;18.10;99.90;;;;;;5072487;28;20024;-89
2021/05/29 08:26:38;;;;;;;7.88;6.45;;;18.20;99.90;;;;;;5091919;28;20020;-90
2021/05/29 08:29:05;;;;;;;7.80;6.95;;;18.40;99.90;;;;;;5088699;28;20053;-89
2021/05/29 08:31:31;;;;;;;7.07;5.20;;;18.30;99.90;;;;;;5089275;28;20024;-89
2021/05/29 08:33:57;;;;;;;5.65;5.10;;;18.40;99.90;;;;;;5091774;28;20057;-89
2021/05/29 08:36:22;;;;;;;7.32;5.40;;;18.70;99.90;;;;;;5071223;28;20113;-89
2021/05/29 08:38:48;;;;;;;6.13;5.50;;;18.60;99.90;;;;;;5087786;28;20476;-89
2021/05/29 08:41:15;;;;;;;7.75;5.90;;;18.90;99.90;;;;;;5070273;28;20598;-90
2021/05/29 08:43:41;;;;;;;8.48;6.88;;;18.90;99.90;;;;;;5072884;28;20107;-90
2021/05/29 08:46:07;;;;;;;9.45;6.88;;;18.90;99.90;;;;;;5072146;28;20060;-90
2021/05/29 08:48:32;;;;;;;7.25;5.75;;;19.10;99.90;;;;;;5072738;28;20028;-90
2021/05/29 08:51:13;;;;;;;7.28;5.10;;;19.10;99.90;;;;;;5072813;28;20055;-90
2021/05/29 08:53:52;;;;;;;6.57;4.90;;;19.00;99.90;;;;;;5089206;28;20020;-90
2021/05/29 08:56:22;;;;;;;6.88;4.68;;;18.70;99.90;;;;;;5065293;28;20023;-90
2021/05/29 08:58:47;;;;;;;5.93;5.32;;;18.90;99.90;;;;;;5072963;28;20039;-90
2021/05/29 09:01:14;;;;;;;6.47;5.50;;;19.20;99.90;;;;;;5091675;28;20028;-90
2021/05/29 09:03:50;;;;;;;5.78;5.18;;;19.30;99.90;;;;;;5076829;28;20469;-90
2021/05/29 09:06:37;;;;;;;6.93;5.25;;;19.30;99.90;;;;;;5074884;28;20443;-90
2021/05/29 09:09:06;;;;;;;6.35;5.28;;;19.40;99.90;;;;;;5093789;28;20032;-91
2021/05/29 09:11:49;;;;;;;7.10;5.53;;;19.40;99.90;;;;;;5076022;28;20031;-90
2021/05/29 09:14:24;;;;;;;5.75;5.15;;;19.60;99.90;;;;;;5092541;28;20103;-89
2021/05/29 09:17:14;;;;;;;5.70;5.07;;;19.60;99.90;;;;;;5090840;28;20039;-90
2021/05/29 09:20:09;;;;;;;6.63;5.57;;;19.70;99.90;;;;;;5072811;28;20408;-90
2021/05/29 09:22:55;;;;;;;6.00;5.40;;;19.70;99.90;;;;;;5079889;28;20028;-90
2021/05/29 09:25:23;;;;;;;6.28;5.65;;;19.90;99.90;;;;;;5077968;28;20054;-90
2021/05/29 09:27:56;;;;;;;6.18;5.35;;;19.90;99.90;;;;;;5094266;28;20031;-89
2021/05/29 09:30:48;;;;;;;6.20;5.43;;;20.20;99.90;;;;;;5093998;28;20063;-89
2021/05/29 09:33:18;;;;;;;7.78;5.78;;;20.60;99.90;;;;;;5069065;28;20052;-90
2021/05/29 09:36:03;;;;;;;6.95;5.90;;;20.50;99.90;;;;;;5093649;28;20027;-89
2021/05/29 09:38:43;;;;;;;8.95;5.68;;;20.60;99.90;;;;;;5092444;28;20042;-89
2021/05/29 09:41:30;;;;;;;6.75;5.43;;;20.50;99.90;;;;;;5091408;28;20115;-89
2021/05/29 09:44:04;;;;;;;7.68;5.95;;;21.20;99.90;;;;;;5075133;28;20614;-89
2021/05/29 09:46:39;;;;;;;6.97;5.95;;;21.00;99.90;;;;;;5075690;28;20032;-90
2021/05/29 09:49:05;;;;;;;10.82;8.77;;;21.20;99.90;;;;;;5073718;28;20113;-89
2021/05/29 09:51:33;;;;;;;7.50;6.75;;;21.10;99.90;;;;;;5092614;28;20055;-90
2021/05/29 09:54:07;;;;;;;6.32;5.68;;;21.50;99.90;;;;;;5092047;28;20032;-89
2021/05/29 09:56:37;;;;;;;9.35;8.32;;;21.20;99.90;;;;;;5071984;28;20055;-89
2021/05/29 09:59:12;;;;;;;7.60;6.75;;;21.50;99.90;;;;;;5072375;28;20044;-89
2021/05/29 10:01:47;;;;;;;12.55;10.68;;;21.50;99.90;;;;;;5091424;28;20072;-90
2021/05/29 10:04:21;;;;;;;8.80;7.13;;;21.70;99.90;;;;;;5075433;28;20032;-88
2021/05/29 10:06:58;;;;;;;16.30;12.68;;;22.40;99.90;;;;;;5089581;28;20028;-89
2021/05/29 10:09:24;;;;;;;8.00;7.20;;;22.10;99.90;;;;;;5090557;28;20016;-89
2021/05/29 10:11:50;;;;;;;7.85;7.10;;;22.60;99.90;;;;;;5089439;28;20024;-89
2021/05/29 10:14:16;;;;;;;8.48;7.00;;;22.00;99.90;;;;;;5091489;28;20024;-89
2021/05/29 10:16:42;;;;;;;7.57;6.85;;;22.20;99.90;;;;;;5089768;28;20090;-89
2021/05/29 10:19:10;;;;;;;6.72;5.95;;;22.90;99.90;;;;;;5091019;28;20040;-89
2021/05/29 10:21:37;;;;;;;13.23;10.75;;;23.30;99.90;;;;;;5092811;28;20035;-89
2021/05/29 10:24:05;;;;;;;6.78;5.60;;;23.40;99.90;;;;;;5092450;28;20035;-89
2021/05/29 10:26:31;;;;;;;7.65;6.88;;;23.80;99.90;;;;;;5091315;28;20020;-89
2021/05/29 10:28:58;;;;;;;9.73;6.07;;;23.70;99.90;;;;;;5090757;28;20035;-89
2021/05/29 10:31:28;;;;;;;7.50;6.47;;;24.00;99.90;;;;;;5091363;28;20110;-90
2021/05/29 10:33:54;;;;;;;6.68;5.97;;;24.20;99.90;;;;;;5088368;28;20129;-89
2021/05/29 10:36:54;;;;;;;6.18;5.30;;;23.40;99.90;;;;;;5083690;28;20479;-89
2021/05/29 10:39:32;;;;;;;7.03;6.40;;;23.40;99.90;;;;;;5056343;28;20103;-89
2021/05/29 10:42:00;;;;;;;6.22;5.65;;;23.60;99.90;;;;;;5082565;28;20024;-89
2021/05/29 10:44:42;;;;;;;6.75;6.03;;;23.50;99.90;;;;;;5082739;28;20024;-89
2021/05/29 10:47:07;;;;;;;6.50;5.90;;;23.10;99.90;;;;;;5064819;28;20039;-89
2021/05/29 10:49:54;;;;;;;8.02;6.60;;;23.00;99.90;;;;;;5083936;28;20572;-89
2021/05/29 10:52:36;;;;;;;7.90;6.07;;;22.30;99.90;;;;;;5055031;28;20013;-89
2021/05/29 10:55:13;;;;;;;7.28;6.53;;;21.90;99.90;;;;;;5086995;28;20055;-90
2021/05/29 10:57:49;;;;;;;10.05;7.25;;;21.70;99.90;;;;;;5068031;28;20036;-89
2021/05/29 11:00:46;;;;;;;7.75;6.95;;;21.60;99.90;;;;;;5081261;28;20086;-89
2021/05/29 11:03:24;;;;;;;7.13;6.43;;;21.80;99.90;;;;;;5081349;28;20028;-89
2021/05/29 11:06:01;;;;;;;7.13;6.43;;;21.30;99.90;;;;;;5064869;28;20511;-89
2021/05/29 11:08:55;;;;;;;10.60;6.97;;;21.40;99.90;;;;;;5081472;28;20027;-90
2021/05/29 11:11:43;;;;;;;10.80;6.78;;;21.20;99.90;;;;;;5075195;28;20036;-89
2021/05/29 11:14:17;;;;;;;8.13;6.68;;;21.60;99.90;;;;;;5071378;28;20036;-90
2021/05/29 11:16:54;;;;;;;8.32;6.65;;;21.50;99.90;;;;;;5068112;28;20416;-89
2021/05/29 11:19:21;;;;;;;6.65;5.95;;;21.30;99.90;;;;;;5070889;28;20040;-89
2021/05/29 11:22:04;;;;;;;8.40;6.50;;;21.50;99.90;;;;;;5087496;28;20547;-89
2021/05/29 11:24:33;;;;;;;7.20;6.50;;;21.70;99.90;;;;;;5070391;28;20029;-89
2021/05/29 11:26:59;;;;;;;6.80;6.10;;;21.80;99.90;;;;;;5080489;28;20024;-89
2021/05/29 11:29:25;;;;;;;7.03;5.35;;;21.80;99.90;;;;;;5062979;28;20035;-89
2021/05/29 11:31:51;;;;;;;5.80;4.82;;;21.90;99.90;;;;;;5062535;28;20048;-90
2021/05/29 11:34:17;;;;;;;6.10;4.38;;;22.00;99.90;;;;;;5069962;28;20512;-89
2021/05/29 11:36:43;;;;;;;4.68;4.05;;;22.40;99.90;;;;;;5071796;28;20028;-89
2021/05/29 11:39:11;;;;;;;4.88;4.40;;;22.70;99.90;;;;;;5069177;28;20033;-89
2021/05/29 11:41:37;;;;;;;5.00;3.88;;;22.50;99.90;;;;;;5052525;28;20161;-89
2021/05/29 11:44:03;;;;;;;3.88;3.30;;;22.60;99.90;;;;;;5069476;28;20548;-89
2021/05/29 11:46:30;;;;;;;3.10;2.90;;;22.60;99.90;;;;;;5053412;28;20025;-89
2021/05/29 11:49:00;;;;;;;3.80;2.97;;;22.90;99.90;;;;;;5070061;28;20035;-89
2021/05/29 11:51:28;;;;;;;4.30;3.00;;;23.30;99.90;;;;;;5069605;28;20471;-89
2021/05/29 11:53:56;;;;;;;3.05;2.75;;;23.50;99.90;;;;;;5052896;28;20051;-89
2021/05/29 11:56:36;;;;;;;4.20;2.65;;;23.90;99.90;;;;;;5052434;28;20031;-89
2021/05/29 11:59:05;;;;;;;2.42;2.22;;;24.20;99.90;;;;;;5069525;28;20036;-89
2021/05/29 12:01:36;;;;;;;2.33;2.13;;;24.50;99.90;;;;;;5069834;28;20020;-89
2021/05/29 12:04:05;;;;;;;3.08;2.25;;;24.60;99.90;;;;;;5069479;28;20055;-89
2021/05/29 12:06:35;;;;;;;4.00;2.17;;;25.50;99.90;;;;;;5053310;28;20514;-89
2021/05/29 12:09:04;;;;;;;4.15;1.92;;;27.30;99.90;;;;;;5069812;28;20032;-89
2021/05/29 12:11:32;;;;;;;2.20;2.00;;;27.80;99.90;;;;;;5052277;28;20074;-89
2021/05/29 12:14:01;;;;;;;1.98;1.77;;;28.80;99.90;;;;;;5069705;28;20032;-89
2021/05/29 12:16:35;;;;;;;2.45;1.85;;;29.50;99.90;;;;;;5050677;28;20028;-89
2021/05/29 12:19:01;;;;;;;2.60;2.10;;;30.10;99.90;;;;;;5051253;28;20048;-89
2021/05/29 12:21:42;;;;;;;2.42;2.20;;;29.90;99.90;;;;;;5053527;28;20032;-89
2021/05/29 12:24:08;;;;;;;3.35;2.30;;;30.30;99.90;;;;;;5069285;28;20086;-89
2021/05/29 12:26:34;;;;;;;2.42;2.10;;;29.80;99.90;;;;;;5069250;28;20393;-89
2021/05/29 12:29:00;;;;;;;2.85;2.20;;;30.60;99.90;;;;;;5051866;28;20086;-89
2021/05/29 12:32:08;;;;;;;2.13;1.92;;;31.00;99.90;;;;;;5067257;28;20087;-88
2021/05/29 12:34:34;;;;;;;2.45;1.90;;;29.60;99.90;;;;;;5072524;28;20048;-90
2021/05/29 12:37:03;;;;;;;4.05;2.20;;;29.40;99.90;;;;;;5093366;28;20024;-89
2021/05/29 12:39:41;;;;;;;2.75;1.98;;;29.90;99.90;;;;;;5076627;28;20102;-89
2021/05/29 12:42:38;;;;;;;2.03;1.63;;;30.50;99.90;;;;;;5092869;28;20519;-89
2021/05/29 12:45:18;;;;;;;1.95;1.67;;;30.20;99.90;;;;;;5070410;28;20382;-89
2021/05/29 12:48:02;;;;;;;2.92;2.10;;;29.80;99.90;;;;;;5092723;28;20032;-89
2021/05/29 12:50:29;;;;;;;2.17;1.98;;;28.80;99.90;;;;;;5093436;28;20034;-89
2021/05/29 12:53:08;;;;;;;1.95;1.85;;;28.80;99.90;;;;;;5093209;28;20040;-89
2021/05/29 12:55:34;;;;;;;2.95;1.80;;;29.10;99.90;;;;;;5093056;28;20610;-89
2021/05/29 12:58:18;;;;;;;2.60;2.00;;;29.40;99.90;;;;;;5074145;28;20093;-90
2021/05/29 13:01:13;;;;;;;1.92;1.73;;;28.80;99.90;;;;;;5091109;28;20118;-89
2021/05/29 13:09:37;;;;;;;1.98;1.88;;;29.50;99.90;;;;;;5093130;28;20046;-90
2021/05/29 13:12:19;;;;;;;2.55;2.13;;;29.90;99.90;;;;;;5090234;28;20039;-89
2021/05/29 13:14:46;;;;;;;2.38;1.77;;;29.70;99.90;;;;;;5090766;28;20357;-89